sensor_id;sensor_type;location;lat;lon;timestamp;pressure;altitude;pressure_sealevel;temperature;humidity
13478;BME280;12598;62.382;17.344;2023-02-13T00:00:20;101423.84;;;18.75;24.69
13478;BME280;12598;62.382;17.344;2023-02-13T00:01:22;101426.25;;;18.78;24.41
13478;BME280;12598;62.382;17.344;2023-02-13T00:02:24;101429.09;;;18.77;24.48
13478;BME280;12598;62.382;17.344;2023-02-13T00:03:26;101429.19;;;18.75;24.50
13478;BME280;12598;62.382;17.344;2023-02-13T00:04:28;101425.69;;;18.75;24.68
13478;BME280;12598;62.382;17.344;2023-02-13T00:05:30;101429.34;;;18.74;24.61
13478;BME280;12598;62.382;17.344;2023-02-13T00:06:32;101436.41;;;18.75;24.41
13478;BME280;12598;62.382;17.344;2023-02-13T00:07:34;101432.03;;;18.74;24.70
13478;BME280;12598;62.382;17.344;2023-02-13T00:08:35;101433.03;;;18.73;24.55
13478;BME280;12598;62.382;17.344;2023-02-13T00:09:38;101429.59;;;18.71;24.34
13478;BME280;12598;62.382;17.344;2023-02-13T00:10:40;101428.66;;;18.72;24.92
13478;BME280;12598;62.382;17.344;2023-02-13T00:11:42;101427.78;;;18.71;24.85
13478;BME280;12598;62.382;17.344;2023-02-13T00:12:43;101432.28;;;18.71;24.50
13478;BME280;12598;62.382;17.344;2023-02-13T00:13:45;101427.91;;;18.70;24.74
13478;BME280;12598;62.382;17.344;2023-02-13T00:14:47;101411.94;;;18.59;24.70
13478;BME280;12598;62.382;17.344;2023-02-13T00:15:57;101433.25;;;18.70;24.72
13478;BME280;12598;62.382;17.344;2023-02-13T00:16:59;101433.03;;;18.73;24.58
13478;BME280;12598;62.382;17.344;2023-02-13T00:18:02;101438.63;;;18.70;24.57
13478;BME280;12598;62.382;17.344;2023-02-13T00:19:04;101436.91;;;18.69;24.67
13478;BME280;12598;62.382;17.344;2023-02-13T00:20:06;101432.53;;;18.68;24.74
13478;BME280;12598;62.382;17.344;2023-02-13T00:21:10;101429.88;;;18.68;24.75
13478;BME280;12598;62.382;17.344;2023-02-13T00:22:13;101423.69;;;18.67;25.02
13478;BME280;12598;62.382;17.344;2023-02-13T00:23:17;101429.03;;;18.67;24.94
13478;BME280;12598;62.382;17.344;2023-02-13T00:24:19;101431.84;;;18.66;25.00
13478;BME280;12598;62.382;17.344;2023-02-13T00:25:20;101431.00;;;18.65;24.89
13478;BME280;12598;62.382;17.344;2023-02-13T00:26:23;101439.16;;;18.64;24.92
13478;BME280;12598;62.382;17.344;2023-02-13T00:27:25;101411.38;;;18.55;24.68
13478;BME280;12598;62.382;17.344;2023-02-13T00:28:27;101426.63;;;18.64;24.99
13478;BME280;12598;62.382;17.344;2023-02-13T00:29:29;101425.78;;;18.64;24.92
13478;BME280;12598;62.382;17.344;2023-02-13T00:30:31;101412.81;;;18.59;24.74
13478;BME280;12598;62.382;17.344;2023-02-13T00:31:32;101418.00;;;18.61;24.63
13478;BME280;12598;62.382;17.344;2023-02-13T00:32:34;101416.47;;;18.58;24.85
13478;BME280;12598;62.382;17.344;2023-02-13T00:33:37;101413.91;;;18.57;24.72
13478;BME280;12598;62.382;17.344;2023-02-13T00:34:39;101427.72;;;18.62;24.87
13478;BME280;12598;62.382;17.344;2023-02-13T00:35:41;101413.50;;;18.61;24.99
13478;BME280;12598;62.382;17.344;2023-02-13T00:36:43;101410.50;;;18.55;24.76
13478;BME280;12598;62.382;17.344;2023-02-13T00:37:45;101410.50;;;18.55;24.84
13478;BME280;12598;62.382;17.344;2023-02-13T00:38:47;101410.13;;;18.59;25.15
13478;BME280;12598;62.382;17.344;2023-02-13T00:39:49;101409.25;;;18.59;24.62
13478;BME280;12598;62.382;17.344;2023-02-13T00:40:52;101409.25;;;18.59;24.67
13478;BME280;12598;62.382;17.344;2023-02-13T00:41:54;101403.06;;;18.58;24.92
13478;BME280;12598;62.382;17.344;2023-02-13T00:42:56;101394.59;;;18.53;24.81
13478;BME280;12598;62.382;17.344;2023-02-13T00:43:57;101407.56;;;18.58;24.99
13478;BME280;12598;62.382;17.344;2023-02-13T00:44:59;101406.03;;;18.55;25.03
13478;BME280;12598;62.382;17.344;2023-02-13T00:46:03;101404.88;;;18.58;24.78
13478;BME280;12598;62.382;17.344;2023-02-13T00:47:05;101403.84;;;18.49;25.13
13478;BME280;12598;62.382;17.344;2023-02-13T00:48:07;101417.44;;;18.57;25.24
13478;BME280;12598;62.382;17.344;2023-02-13T00:49:09;101413.06;;;18.56;25.23
13478;BME280;12598;62.382;17.344;2023-02-13T00:50:11;101415.75;;;18.56;25.09
13478;BME280;12598;62.382;17.344;2023-02-13T00:51:13;101407.84;;;18.55;24.90
13478;BME280;12598;62.382;17.344;2023-02-13T00:52:15;101415.03;;;18.54;25.15
13478;BME280;12598;62.382;17.344;2023-02-13T00:53:18;101416.03;;;18.53;25.06
13478;BME280;12598;62.382;17.344;2023-02-13T00:54:20;101413.19;;;18.55;25.00
13478;BME280;12598;62.382;17.344;2023-02-13T00:55:22;101413.19;;;18.55;25.07
13478;BME280;12598;62.382;17.344;2023-02-13T00:56:24;101404.00;;;18.48;25.18
13478;BME280;12598;62.382;17.344;2023-02-13T00:57:26;101408.00;;;18.53;25.08
13478;BME280;12598;62.382;17.344;2023-02-13T00:58:28;101381.81;;;18.36;25.29
13478;BME280;12598;62.382;17.344;2023-02-13T00:59:30;101412.47;;;18.53;24.96
13478;BME280;12598;62.382;17.344;2023-02-13T01:00:34;101406.69;;;18.48;25.09
13478;BME280;12598;62.382;17.344;2023-02-13T01:01:35;101412.63;;;18.51;24.93
13478;BME280;12598;62.382;17.344;2023-02-13T01:02:37;101410.06;;;18.50;25.23
13478;BME280;12598;62.382;17.344;2023-02-13T01:03:39;101411.78;;;18.51;24.99
13478;BME280;12598;62.382;17.344;2023-02-13T01:04:41;101405.59;;;18.50;24.99
13478;BME280;12598;62.382;17.344;2023-02-13T01:05:43;101406.69;;;18.48;25.21
13478;BME280;12598;62.382;17.344;2023-02-13T01:06:45;101411.78;;;18.51;25.48
13478;BME280;12598;62.382;17.344;2023-02-13T01:07:47;101394.81;;;18.41;25.17
13478;BME280;12598;62.382;17.344;2023-02-13T01:08:50;101393.84;;;18.42;25.31
13478;BME280;12598;62.382;17.344;2023-02-13T01:09:52;101410.94;;;18.50;25.10
13478;BME280;12598;62.382;17.344;2023-02-13T01:10:54;101404.72;;;18.50;25.27
13478;BME280;12598;62.382;17.344;2023-02-13T01:11:57;101402.44;;;18.45;25.16
13478;BME280;12598;62.382;17.344;2023-02-13T01:12:59;101410.94;;;18.50;25.10
13478;BME280;12598;62.382;17.344;2023-02-13T01:14:01;101405.38;;;18.42;25.33
13478;BME280;12598;62.382;17.344;2023-02-13T01:15:04;101413.75;;;18.49;25.42
13478;BME280;12598;62.382;17.344;2023-02-13T01:16:06;101410.06;;;18.50;25.22
13478;BME280;12598;62.382;17.344;2023-02-13T01:17:08;101418.22;;;18.48;25.40
13478;BME280;12598;62.382;17.344;2023-02-13T01:18:14;101417.50;;;18.46;25.29
13478;BME280;12598;62.382;17.344;2023-02-13T01:19:17;101412.59;;;18.42;25.24
13478;BME280;12598;62.382;17.344;2023-02-13T01:20:19;101424.72;;;18.46;25.18
13478;BME280;12598;62.382;17.344;2023-02-13T01:21:21;101418.22;;;18.48;25.48
13478;BME280;12598;62.382;17.344;2023-02-13T01:22:26;101411.88;;;18.40;25.43
13478;BME280;12598;62.382;17.344;2023-02-13T01:23:33;101416.69;;;18.46;25.25
13478;BME280;12598;62.382;17.344;2023-02-13T01:24:35;101410.63;;;18.44;25.44
13478;BME280;12598;62.382;17.344;2023-02-13T01:25:41;101412.03;;;18.48;25.10
13478;BME280;12598;62.382;17.344;2023-02-13T01:26:43;101404.41;;;18.43;25.46
13478;BME280;12598;62.382;17.344;2023-02-13T01:27:46;101417.41;;;18.48;25.22
13478;BME280;12598;62.382;17.344;2023-02-13T01:28:53;101414.00;;;18.46;25.56
13478;BME280;12598;62.382;17.344;2023-02-13T01:29:56;101414.84;;;18.46;25.41
13478;BME280;12598;62.382;17.344;2023-02-13T01:30:57;101417.50;;;18.46;25.10
13478;BME280;12598;62.382;17.344;2023-02-13T01:32:00;101410.47;;;18.45;25.13
13478;BME280;12598;62.382;17.344;2023-02-13T01:33:05;101416.81;;;18.44;25.28
13478;BME280;12598;62.382;17.344;2023-02-13T01:34:07;101394.50;;;18.34;25.13
13478;BME280;12598;62.382;17.344;2023-02-13T01:35:10;101415.97;;;18.44;25.26
13478;BME280;12598;62.382;17.344;2023-02-13T01:36:13;101413.41;;;18.42;25.37
13478;BME280;12598;62.382;17.344;2023-02-13T01:37:15;101415.97;;;18.44;25.21
13478;BME280;12598;62.382;17.344;2023-02-13T01:38:18;101419.63;;;18.43;25.60
13478;BME280;12598;62.382;17.344;2023-02-13T01:39:20;101419.63;;;18.43;25.43
13478;BME280;12598;62.382;17.344;2023-02-13T01:40:22;101413.41;;;18.42;25.18
13478;BME280;12598;62.382;17.344;2023-02-13T01:41:25;101423.28;;;18.42;25.01
13478;BME280;12598;62.382;17.344;2023-02-13T01:42:29;101425.09;;;18.41;25.47
13478;BME280;12598;62.382;17.344;2023-02-13T01:44:57;101427.25;;;18.47;25.46
13478;BME280;12598;62.382;17.344;2023-02-13T01:46:00;101427.50;;;18.44;25.24
13478;BME280;12598;62.382;17.344;2023-02-13T01:47:02;101424.00;;;18.44;25.42
13478;BME280;12598;62.382;17.344;2023-02-13T01:48:07;101422.44;;;18.41;25.46
13478;BME280;12598;62.382;17.344;2023-02-13T01:49:18;101418.22;;;18.39;25.38
13478;BME280;12598;62.382;17.344;2023-02-13T01:50:32;101420.47;;;18.43;24.91
13478;BME280;12598;62.382;17.344;2023-02-13T01:51:36;101412.59;;;18.42;25.36
13478;BME280;12598;62.382;17.344;2023-02-13T01:52:43;101425.81;;;18.43;25.37
13478;BME280;12598;62.382;17.344;2023-02-13T01:53:58;101407.63;;;18.37;25.15
13478;BME280;12598;62.382;17.344;2023-02-13T01:55:02;101424.72;;;18.46;25.19
13478;BME280;12598;62.382;17.344;2023-02-13T01:56:11;101415.09;;;18.43;25.34
13478;BME280;12598;62.382;17.344;2023-02-13T01:57:19;101410.75;;;18.42;25.19
13478;BME280;12598;62.382;17.344;2023-02-13T01:58:26;101419.63;;;18.43;25.39
13478;BME280;12598;62.382;17.344;2023-02-13T01:59:36;101400.72;;;18.35;25.03
13478;BME280;12598;62.382;17.344;2023-02-13T02:00:41;101409.75;;;18.43;25.06
13478;BME280;12598;62.382;17.344;2023-02-13T02:01:44;101417.94;;;18.42;25.09
13478;BME280;12598;62.382;17.344;2023-02-13T02:02:53;101411.88;;;18.40;25.11
13478;BME280;12598;62.382;17.344;2023-02-13T02:05:12;101407.22;;;18.42;25.49
13478;BME280;12598;62.382;17.344;2023-02-13T02:06:29;101413.97;;;18.36;25.27
13478;BME280;12598;62.382;17.344;2023-02-13T02:07:32;101413.69;;;18.39;25.35
13478;BME280;12598;62.382;17.344;2023-02-13T02:08:39;101413.97;;;18.36;25.49
13478;BME280;12598;62.382;17.344;2023-02-13T02:09:42;101415.66;;;18.37;25.03
13478;BME280;12598;62.382;17.344;2023-02-13T02:10:47;101421.88;;;18.38;25.27
13478;BME280;12598;62.382;17.344;2023-02-13T02:13:23;101419.63;;;18.43;25.37
13478;BME280;12598;62.382;17.344;2023-02-13T02:14:27;101418.78;;;18.42;25.23
13478;BME280;12598;62.382;17.344;2023-02-13T02:15:30;101405.81;;;18.38;25.26
13478;BME280;12598;62.382;17.344;2023-02-13T02:16:32;101399.28;;;18.31;24.93
13478;BME280;12598;62.382;17.344;2023-02-13T02:17:37;101411.44;;;18.35;25.13
13478;BME280;12598;62.382;17.344;2023-02-13T02:18:38;101405.22;;;18.34;25.35
13478;BME280;12598;62.382;17.344;2023-02-13T02:19:51;101405.34;;;18.33;25.46
13478;BME280;12598;62.382;17.344;2023-02-13T02:21:55;101400.19;;;18.41;24.97
13478;BME280;12598;62.382;17.344;2023-02-13T02:24:17;101408.94;;;18.43;25.06
13478;BME280;12598;62.382;17.344;2023-02-13T02:27:16;101415.25;;;18.42;25.22
13478;BME280;12598;62.382;17.344;2023-02-13T02:32:18;101415.44;;;18.50;25.36
13478;BME280;12598;62.382;17.344;2023-02-13T02:33:51;101417.41;;;18.48;25.02
13478;BME280;12598;62.382;17.344;2023-02-13T02:35:18;101419.38;;;18.46;25.11
13478;BME280;12598;62.382;17.344;2023-02-13T02:43:29;101418.47;;;18.36;25.03
13478;BME280;12598;62.382;17.344;2023-02-13T02:44:48;101422.13;;;18.35;25.42
13478;BME280;12598;62.382;17.344;2023-02-13T02:47:26;101426.63;;;18.34;25.43
13478;BME280;12598;62.382;17.344;2023-02-13T02:48:57;101427.50;;;18.35;25.27
13478;BME280;12598;62.382;17.344;2023-02-13T02:52:58;101420.72;;;18.31;25.34
13478;BME280;12598;62.382;17.344;2023-02-13T02:54:16;101418.16;;;18.29;25.36
13478;BME280;12598;62.382;17.344;2023-02-13T02:55:53;101413.38;;;18.33;25.52
13478;BME280;12598;62.382;17.344;2023-02-13T02:57:03;101411.97;;;18.29;25.17
13478;BME280;12598;62.382;17.344;2023-02-13T02:58:23;101409.53;;;18.26;25.16
13478;BME280;12598;62.382;17.344;2023-02-13T02:59:45;101410.00;;;18.31;25.09
13478;BME280;12598;62.382;17.344;2023-02-13T03:01:10;101407.44;;;18.29;25.19
13478;BME280;12598;62.382;17.344;2023-02-13T03:02:33;101401.09;;;18.30;25.12
13478;BME280;12598;62.382;17.344;2023-02-13T03:03:55;101406.59;;;18.29;25.16
13478;BME280;12598;62.382;17.344;2023-02-13T03:05:20;101398.69;;;18.27;25.11
13478;BME280;12598;62.382;17.344;2023-02-13T03:06:49;101400.41;;;18.28;25.09
13478;BME280;12598;62.382;17.344;2023-02-13T03:07:52;101410.47;;;18.25;25.49
13478;BME280;12598;62.382;17.344;2023-02-13T03:09:00;101416.09;;;18.22;25.31
13478;BME280;12598;62.382;17.344;2023-02-13T03:10:26;101409.63;;;18.24;25.36
13478;BME280;12598;62.382;17.344;2023-02-13T03:11:53;101399.31;;;18.20;25.23
13478;BME280;12598;62.382;17.344;2023-02-13T03:13:17;101417.56;;;18.26;25.46
13478;BME280;12598;62.382;17.344;2023-02-13T03:14:29;101410.47;;;18.25;25.40
13478;BME280;12598;62.382;17.344;2023-02-13T03:15:31;101410.03;;;18.20;25.45
13478;BME280;12598;62.382;17.344;2023-02-13T03:16:36;101420.03;;;18.18;25.06
13478;BME280;12598;62.382;17.344;2023-02-13T03:17:56;101420.63;;;18.21;25.18
13478;BME280;12598;62.382;17.344;2023-02-13T03:21:07;101426.53;;;18.25;25.50
13478;BME280;12598;62.382;17.344;2023-02-13T03:22:53;101426.31;;;18.28;25.46
13478;BME280;12598;62.382;17.344;2023-02-13T03:26:52;101427.50;;;18.24;25.12
13478;BME280;12598;62.382;17.344;2023-02-13T03:28:00;101424.13;;;18.22;25.06
13478;BME280;12598;62.382;17.344;2023-02-13T03:31:16;101405.13;;;18.25;25.26
13478;BME280;12598;62.382;17.344;2023-02-13T03:34:51;101406.78;;;18.16;25.45
13478;BME280;12598;62.382;17.344;2023-02-13T03:37:49;101387.72;;;18.10;25.38
13478;BME280;12598;62.382;17.344;2023-02-13T03:39:11;101397.50;;;18.20;25.14
13478;BME280;12598;62.382;17.344;2023-02-13T03:40:26;101400.31;;;18.19;25.53
13478;BME280;12598;62.382;17.344;2023-02-13T03:41:38;101404.09;;;18.16;25.54
13478;BME280;12598;62.382;17.344;2023-02-13T03:42:41;101406.91;;;18.15;25.58
13478;BME280;12598;62.382;17.344;2023-02-13T03:45:02;101400.84;;;18.13;25.40
13478;BME280;12598;62.382;17.344;2023-02-13T03:46:25;101402.25;;;18.17;25.31
13478;BME280;12598;62.382;17.344;2023-02-13T03:47:29;101393.53;;;18.15;25.34
13478;BME280;12598;62.382;17.344;2023-02-13T03:48:34;101388.25;;;18.04;25.52
13478;BME280;12598;62.382;17.344;2023-02-13T03:49:55;101389.03;;;18.15;25.39
13478;BME280;12598;62.382;17.344;2023-02-13T03:51:07;101397.19;;;18.14;25.02
13478;BME280;12598;62.382;17.344;2023-02-13T03:52:37;101390.47;;;18.19;25.54
13478;BME280;12598;62.382;17.344;2023-02-13T03:53:41;101377.16;;;18.08;25.63
13478;BME280;12598;62.382;17.344;2023-02-13T03:54:53;101378.59;;;18.12;25.58
13478;BME280;12598;62.382;17.344;2023-02-13T03:56:17;101385.22;;;18.18;25.55
13478;BME280;12598;62.382;17.344;2023-02-13T03:57:40;101378.88;;;18.19;25.35
13478;BME280;12598;62.382;17.344;2023-02-13T03:59:03;101373.97;;;18.14;25.51
13478;BME280;12598;62.382;17.344;2023-02-13T04:00:18;101330.31;;;17.93;25.54
13478;BME280;12598;62.382;17.344;2023-02-13T04:01:25;101384.66;;;18.14;25.34
13478;BME280;12598;62.382;17.344;2023-02-13T04:02:32;101378.31;;;18.15;25.47
13478;BME280;12598;62.382;17.344;2023-02-13T04:03:57;101375.38;;;18.18;25.63
13478;BME280;12598;62.382;17.344;2023-02-13T04:05:07;101392.44;;;18.17;25.37
13478;BME280;12598;62.382;17.344;2023-02-13T04:06:14;101388.16;;;18.15;25.37
13478;BME280;12598;62.382;17.344;2023-02-13T04:07:18;101392.69;;;18.14;25.64
13478;BME280;12598;62.382;17.344;2023-02-13T04:08:32;101384.50;;;18.16;25.26
13478;BME280;12598;62.382;17.344;2023-02-13T04:09:37;101390.13;;;18.13;25.46
13478;BME280;12598;62.382;17.344;2023-02-13T04:10:49;101387.34;;;18.14;25.34
13478;BME280;12598;62.382;17.344;2023-02-13T04:13:26;101397.63;;;18.19;25.29
13478;BME280;12598;62.382;17.344;2023-02-13T04:14:57;101400.63;;;18.25;25.25
13478;BME280;12598;62.382;17.344;2023-02-13T04:16:10;101395.41;;;18.24;25.50
13478;BME280;12598;62.382;17.344;2023-02-13T04:17:37;101393.25;;;18.18;25.27
13478;BME280;12598;62.382;17.344;2023-02-13T04:18:40;101407.94;;;18.23;25.34
13478;BME280;12598;62.382;17.344;2023-02-13T04:19:42;101405.66;;;18.19;25.24
13478;BME280;12598;62.382;17.344;2023-02-13T04:20:44;101407.63;;;18.17;25.51
13478;BME280;12598;62.382;17.344;2023-02-13T04:21:48;101407.06;;;18.13;25.43
13478;BME280;12598;62.382;17.344;2023-02-13T04:22:56;101419.44;;;18.14;25.32
13478;BME280;12598;62.382;17.344;2023-02-13T04:23:58;101417.75;;;18.13;25.45
13478;BME280;12598;62.382;17.344;2023-02-13T04:25:00;101431.13;;;18.13;25.26
13478;BME280;12598;62.382;17.344;2023-02-13T04:26:06;101433.22;;;18.10;25.78
13478;BME280;12598;62.382;17.344;2023-02-13T04:27:12;101432.97;;;18.13;25.81
13478;BME280;12598;62.382;17.344;2023-02-13T04:28:16;101438.31;;;18.13;25.61
13478;BME280;12598;62.382;17.344;2023-02-13T04:29:19;101427.41;;;18.05;25.42
13478;BME280;12598;62.382;17.344;2023-02-13T04:30:21;101440.28;;;18.11;25.52
13478;BME280;12598;62.382;17.344;2023-02-13T04:31:23;101418.28;;;18.07;25.65
13478;BME280;12598;62.382;17.344;2023-02-13T04:32:25;101428.13;;;18.07;25.44
13478;BME280;12598;62.382;17.344;2023-02-13T04:33:26;101434.91;;;18.11;25.71
13478;BME280;12598;62.382;17.344;2023-02-13T04:34:28;101407.25;;;18.01;25.51
13478;BME280;12598;62.382;17.344;2023-02-13T04:35:30;101424.09;;;18.12;25.66
13478;BME280;12598;62.382;17.344;2023-02-13T04:36:32;101425.19;;;18.10;25.31
13478;BME280;12598;62.382;17.344;2023-02-13T04:37:34;101421.81;;;18.08;25.66
13478;BME280;12598;62.382;17.344;2023-02-13T04:38:36;101427.88;;;18.10;25.65
13478;BME280;12598;62.382;17.344;2023-02-13T04:39:37;101418.03;;;18.10;25.35
13478;BME280;12598;62.382;17.344;2023-02-13T04:40:39;101429.56;;;18.11;25.46
13478;BME280;12598;62.382;17.344;2023-02-13T04:41:41;101421.69;;;18.09;25.54
13478;BME280;12598;62.382;17.344;2023-02-13T04:42:43;101416.19;;;18.11;25.56
13478;BME280;12598;62.382;17.344;2023-02-13T04:43:45;101420.00;;;18.08;25.58
13478;BME280;12598;62.382;17.344;2023-02-13T04:44:47;101409.13;;;18.10;25.51
13478;BME280;12598;62.382;17.344;2023-02-13T04:45:48;101420.56;;;18.12;25.68
13478;BME280;12598;62.382;17.344;2023-02-13T04:46:50;101418.84;;;18.11;26.04
13478;BME280;12598;62.382;17.344;2023-02-13T04:47:54;101418.41;;;18.06;25.91
13478;BME280;12598;62.382;17.344;2023-02-13T04:48:56;101415.19;;;18.12;25.59
13478;BME280;12598;62.382;17.344;2023-02-13T04:49:58;101405.47;;;18.11;25.61
13478;BME280;12598;62.382;17.344;2023-02-13T04:51:00;101413.50;;;18.11;25.50
13478;BME280;12598;62.382;17.344;2023-02-13T04:52:02;101408.16;;;18.11;25.72
13478;BME280;12598;62.382;17.344;2023-02-13T04:53:04;101387.28;;;18.05;25.64
13478;BME280;12598;62.382;17.344;2023-02-13T04:54:05;101401.97;;;18.10;25.45
13478;BME280;12598;62.382;17.344;2023-02-13T04:55:07;101396.03;;;18.07;25.62
13478;BME280;12598;62.382;17.344;2023-02-13T04:56:09;101406.47;;;18.10;25.60
13478;BME280;12598;62.382;17.344;2023-02-13T04:57:11;101418.84;;;18.11;25.76
13478;BME280;12598;62.382;17.344;2023-02-13T04:58:13;101412.34;;;18.04;25.78
13478;BME280;12598;62.382;17.344;2023-02-13T04:59:15;101395.75;;;18.10;25.40
13478;BME280;12598;62.382;17.344;2023-02-13T05:00:18;101398.44;;;18.10;25.82
13478;BME280;12598;62.382;17.344;2023-02-13T05:01:20;101405.63;;;18.09;25.82
13478;BME280;12598;62.382;17.344;2023-02-13T05:02:22;101404.66;;;18.10;25.50
13478;BME280;12598;62.382;17.344;2023-02-13T05:03:23;101411.09;;;18.08;25.76
13478;BME280;12598;62.382;17.344;2023-02-13T05:04:27;101404.16;;;18.05;25.66
13478;BME280;12598;62.382;17.344;2023-02-13T05:05:29;101380.22;;;18.04;26.01
13478;BME280;12598;62.382;17.344;2023-02-13T05:06:31;101426.88;;;18.11;25.59
13478;BME280;12598;62.382;17.344;2023-02-13T05:07:33;101390.41;;;18.10;25.59
13478;BME280;12598;62.382;17.344;2023-02-13T05:08:35;101404.31;;;18.04;25.71
13478;BME280;12598;62.382;17.344;2023-02-13T05:09:37;101396.28;;;18.04;25.86
13478;BME280;12598;62.382;17.344;2023-02-13T05:10:42;101395.75;;;18.10;26.29
13478;BME280;12598;62.382;17.344;2023-02-13T05:11:43;101401.97;;;18.10;25.52
13478;BME280;12598;62.382;17.344;2023-02-13T05:12:46;101409.13;;;18.10;25.88
13478;BME280;12598;62.382;17.344;2023-02-13T05:13:48;101410.81;;;18.11;25.89
13478;BME280;12598;62.382;17.344;2023-02-13T05:14:50;101386.75;;;18.11;25.81
13478;BME280;12598;62.382;17.344;2023-02-13T05:15:52;101409.00;;;18.11;25.76
13478;BME280;12598;62.382;17.344;2023-02-13T05:16:54;101403.66;;;18.11;25.89
13478;BME280;12598;62.382;17.344;2023-02-13T05:17:56;101395.75;;;18.10;25.77
13478;BME280;12598;62.382;17.344;2023-02-13T05:18:58;101386.75;;;18.11;25.86
13478;BME280;12598;62.382;17.344;2023-02-13T05:20:00;101391.25;;;18.10;25.74
13478;BME280;12598;62.382;17.344;2023-02-13T05:21:02;101403.78;;;18.10;25.63
13478;BME280;12598;62.382;17.344;2023-02-13T05:22:22;101396.91;;;18.17;25.50
13478;BME280;12598;62.382;17.344;2023-02-13T05:23:42;101388.63;;;18.20;25.57
13478;BME280;12598;62.382;17.344;2023-02-13T05:24:44;101396.91;;;18.17;25.49
13478;BME280;12598;62.382;17.344;2023-02-13T05:25:46;101391.00;;;18.13;25.69
13478;BME280;12598;62.382;17.344;2023-02-13T05:26:48;101388.69;;;18.09;25.89
13478;BME280;12598;62.382;17.344;2023-02-13T05:27:50;101366.03;;;18.13;25.64
13478;BME280;12598;62.382;17.344;2023-02-13T05:28:51;101361.16;;;17.97;26.00
13478;BME280;12598;62.382;17.344;2023-02-13T05:30:13;101385.66;;;18.13;25.60
13478;BME280;12598;62.382;17.344;2023-02-13T05:31:15;101391.81;;;18.14;25.68
13478;BME280;12598;62.382;17.344;2023-02-13T05:32:17;101387.47;;;18.13;25.50
13478;BME280;12598;62.382;17.344;2023-02-13T05:33:19;101382.25;;;18.11;25.63
13478;BME280;12598;62.382;17.344;2023-02-13T05:34:22;101381.38;;;18.11;25.67
13478;BME280;12598;62.382;17.344;2023-02-13T05:35:24;101400.84;;;18.13;25.60
13478;BME280;12598;62.382;17.344;2023-02-13T05:36:26;101378.97;;;18.08;25.60
13478;BME280;12598;62.382;17.344;2023-02-13T05:37:28;101367.03;;;18.12;25.77
13478;BME280;12598;62.382;17.344;2023-02-13T05:38:30;101372.91;;;18.06;25.88
13478;BME280;12598;62.382;17.344;2023-02-13T05:39:32;101402.69;;;18.12;25.56
13478;BME280;12598;62.382;17.344;2023-02-13T05:40:34;101393.22;;;18.08;25.56
13478;BME280;12598;62.382;17.344;2023-02-13T05:41:36;101373.34;;;18.11;25.89
13478;BME280;12598;62.382;17.344;2023-02-13T05:42:39;101409.13;;;18.10;25.75
13478;BME280;12598;62.382;17.344;2023-02-13T05:43:41;101408.16;;;18.11;26.19
13478;BME280;12598;62.382;17.344;2023-02-13T05:44:43;101408.16;;;18.11;26.08
13478;BME280;12598;62.382;17.344;2023-02-13T05:45:45;101393.94;;;18.10;25.99
13478;BME280;12598;62.382;17.344;2023-02-13T05:46:47;101399.69;;;18.06;25.62
13478;BME280;12598;62.382;17.344;2023-02-13T05:47:49;101395.63;;;18.11;25.83
13478;BME280;12598;62.382;17.344;2023-02-13T05:48:51;101397.34;;;18.12;25.83
13478;BME280;12598;62.382;17.344;2023-02-13T05:49:53;101389.41;;;18.11;25.84
13478;BME280;12598;62.382;17.344;2023-02-13T05:50:55;101369.38;;;18.05;25.91
13478;BME280;12598;62.382;17.344;2023-02-13T05:51:57;101373.75;;;18.06;25.81
13478;BME280;12598;62.382;17.344;2023-02-13T05:52:59;101390.28;;;18.11;26.01
13478;BME280;12598;62.382;17.344;2023-02-13T05:54:01;101396.63;;;18.10;25.76
13478;BME280;12598;62.382;17.344;2023-02-13T05:55:03;101394.31;;;18.06;26.01
13478;BME280;12598;62.382;17.344;2023-02-13T05:56:06;101404.66;;;18.10;25.71
13478;BME280;12598;62.382;17.344;2023-02-13T05:57:08;101360.59;;;17.94;25.60
13478;BME280;12598;62.382;17.344;2023-02-13T05:58:09;101398.16;;;18.13;25.77
13478;BME280;12598;62.382;17.344;2023-02-13T05:59:12;101399.84;;;18.14;25.88
13478;BME280;12598;62.382;17.344;2023-02-13T06:00:15;101398.16;;;18.13;25.94
13478;BME280;12598;62.382;17.344;2023-02-13T06:01:17;101391.97;;;18.12;25.74
13478;BME280;12598;62.382;17.344;2023-02-13T06:02:19;101390.13;;;18.13;25.63
13478;BME280;12598;62.382;17.344;2023-02-13T06:03:21;101383.34;;;18.09;25.98
13478;BME280;12598;62.382;17.344;2023-02-13T06:04:23;101400.84;;;18.13;25.89
13478;BME280;12598;62.382;17.344;2023-02-13T06:05:25;101405.22;;;18.14;25.71
13478;BME280;12598;62.382;17.344;2023-02-13T06:06:27;101379.38;;;18.03;25.89
13478;BME280;12598;62.382;17.344;2023-02-13T06:07:29;101361.50;;;18.04;25.97
13478;BME280;12598;62.382;17.344;2023-02-13T06:08:31;101409.59;;;18.15;25.60
13478;BME280;12598;62.382;17.344;2023-02-13T06:09:33;101398.88;;;18.15;25.98
13478;BME280;12598;62.382;17.344;2023-02-13T06:10:34;101399.75;;;18.15;26.12
13478;BME280;12598;62.382;17.344;2023-02-13T06:11:36;101386.22;;;18.17;26.08
13478;BME280;12598;62.382;17.344;2023-02-13T06:12:38;101397.63;;;18.19;25.96
13478;BME280;12598;62.382;17.344;2023-02-13T06:13:40;101403.69;;;18.21;25.69
13478;BME280;12598;62.382;17.344;2023-02-13T06:14:42;101399.06;;;18.23;26.12
13478;BME280;12598;62.382;17.344;2023-02-13T06:15:44;101388.22;;;18.24;25.99
13478;BME280;12598;62.382;17.344;2023-02-13T06:16:46;101403.19;;;18.27;25.94